sensor_id;sensor_type;location;lat;lon;timestamp;temperature;humidity
72106;SHT30;59975;47.646;18.318;2022-12-07T00:01:08;1.21;92.65
72106;SHT30;59975;47.646;18.318;2022-12-07T00:03:34;1.18;92.70
72106;SHT30;59975;47.646;18.318;2022-12-07T00:06:01;1.17;92.82
72106;SHT30;59975;47.646;18.318;2022-12-07T00:08:27;1.17;93.03
72106;SHT30;59975;47.646;18.318;2022-12-07T00:10:52;1.23;93.32
72106;SHT30;59975;47.646;18.318;2022-12-07T00:13:18;1.27;93.55
72106;SHT30;59975;47.646;18.318;2022-12-07T00:15:44;1.32;93.50
72106;SHT30;59975;47.646;18.318;2022-12-07T00:18:10;1.35;93.61
72106;SHT30;59975;47.646;18.318;2022-12-07T00:20:35;1.40;93.65
72106;SHT30;59975;47.646;18.318;2022-12-07T00:23:00;1.38;93.71
72106;SHT30;59975;47.646;18.318;2022-12-07T00:25:26;1.40;93.67
72106;SHT30;59975;47.646;18.318;2022-12-07T00:27:53;1.42;93.64
72106;SHT30;59975;47.646;18.318;2022-12-07T00:30:21;1.42;93.74
72106;SHT30;59975;47.646;18.318;2022-12-07T00:32:46;1.51;93.84
72106;SHT30;59975;47.646;18.318;2022-12-07T00:35:12;1.65;94.07
72106;SHT30;59975;47.646;18.318;2022-12-07T00:37:37;1.76;94.21
72106;SHT30;59975;47.646;18.318;2022-12-07T00:40:03;1.91;94.35
72106;SHT30;59975;47.646;18.318;2022-12-07T00:42:28;2.03;94.30
72106;SHT30;59975;47.646;18.318;2022-12-07T00:44:54;2.09;94.24
72106;SHT30;59975;47.646;18.318;2022-12-07T00:47:19;2.14;94.20
72106;SHT30;59975;47.646;18.318;2022-12-07T00:49:45;2.26;94.28
72106;SHT30;59975;47.646;18.318;2022-12-07T00:52:10;2.38;94.28
72106;SHT30;59975;47.646;18.318;2022-12-07T00:54:35;2.46;94.28
72106;SHT30;59975;47.646;18.318;2022-12-07T00:57:01;2.50;94.20
72106;SHT30;59975;47.646;18.318;2022-12-07T00:59:26;2.57;94.13
72106;SHT30;59975;47.646;18.318;2022-12-07T01:01:52;2.61;94.07
72106;SHT30;59975;47.646;18.318;2022-12-07T01:04:17;2.65;93.98
72106;SHT30;59975;47.646;18.318;2022-12-07T01:06:43;2.68;93.85
72106;SHT30;59975;47.646;18.318;2022-12-07T01:09:08;2.71;93.79
72106;SHT30;59975;47.646;18.318;2022-12-07T01:11:34;2.73;93.70
72106;SHT30;59975;47.646;18.318;2022-12-07T01:14:00;2.78;93.59
72106;SHT30;59975;47.646;18.318;2022-12-07T01:16:29;2.80;93.55
72106;SHT30;59975;47.646;18.318;2022-12-07T01:18:55;2.87;93.36
72106;SHT30;59975;47.646;18.318;2022-12-07T01:21:30;2.85;93.31
72106;SHT30;59975;47.646;18.318;2022-12-07T01:23:58;2.91;93.10
72106;SHT30;59975;47.646;18.318;2022-12-07T01:26:24;2.92;93.11
72106;SHT30;59975;47.646;18.318;2022-12-07T01:28:51;2.97;93.00
72106;SHT30;59975;47.646;18.318;2022-12-07T01:31:24;3.05;92.94
72106;SHT30;59975;47.646;18.318;2022-12-07T01:33:56;3.12;92.67
72106;SHT30;59975;47.646;18.318;2022-12-07T01:36:30;3.18;92.55
72106;SHT30;59975;47.646;18.318;2022-12-07T01:38:59;3.25;92.22
72106;SHT30;59975;47.646;18.318;2022-12-07T01:41:27;3.28;91.75
72106;SHT30;59975;47.646;18.318;2022-12-07T01:44:24;3.36;91.03
72106;SHT30;59975;47.646;18.318;2022-12-07T01:46:58;3.39;90.74
72106;SHT30;59975;47.646;18.318;2022-12-07T01:52:35;3.48;90.18
72106;SHT30;59975;47.646;18.318;2022-12-07T01:54:44;3.49;89.60
72106;SHT30;59975;47.646;18.318;2022-12-07T01:57:10;3.52;89.25
72106;SHT30;59975;47.646;18.318;2022-12-07T01:59:38;3.52;89.07
72106;SHT30;59975;47.646;18.318;2022-12-07T02:02:07;3.53;89.00
72106;SHT30;59975;47.646;18.318;2022-12-07T02:04:35;3.58;89.10
72106;SHT30;59975;47.646;18.318;2022-12-07T02:07:03;3.56;89.12
72106;SHT30;59975;47.646;18.318;2022-12-07T02:09:29;3.60;88.95
72106;SHT30;59975;47.646;18.318;2022-12-07T02:11:54;3.59;88.63
72106;SHT30;59975;47.646;18.318;2022-12-07T02:14:20;3.56;88.03
72106;SHT30;59975;47.646;18.318;2022-12-07T02:16:55;3.53;88.30
72106;SHT30;59975;47.646;18.318;2022-12-07T02:25:30;3.53;88.74
72106;SHT30;59975;47.646;18.318;2022-12-07T02:28:07;3.55;88.45
72106;SHT30;59975;47.646;18.318;2022-12-07T02:30:41;3.53;88.46
72106;SHT30;59975;47.646;18.318;2022-12-07T02:34:04;3.53;88.48
72106;SHT30;59975;47.646;18.318;2022-12-07T02:36:12;3.55;88.57
72106;SHT30;59975;47.646;18.318;2022-12-07T02:38:48;3.56;88.41
72106;SHT30;59975;47.646;18.318;2022-12-07T02:41:23;3.56;88.53
72106;SHT30;59975;47.646;18.318;2022-12-07T02:44:01;3.55;88.35
72106;SHT30;59975;47.646;18.318;2022-12-07T02:46:30;3.56;88.35
72106;SHT30;59975;47.646;18.318;2022-12-07T02:48:57;3.55;88.13
72106;SHT30;59975;47.646;18.318;2022-12-07T02:51:25;3.52;88.36
72106;SHT30;59975;47.646;18.318;2022-12-07T02:53:51;3.42;88.47
72106;SHT30;59975;47.646;18.318;2022-12-07T02:56:39;3.44;88.88
72106;SHT30;59975;47.646;18.318;2022-12-07T03:10:37;3.53;89.15
72106;SHT30;59975;47.646;18.318;2022-12-07T03:13:25;3.59;89.17
72106;SHT30;59975;47.646;18.318;2022-12-07T03:16:19;3.56;89.06
72106;SHT30;59975;47.646;18.318;2022-12-07T03:19:07;3.59;89.08
72106;SHT30;59975;47.646;18.318;2022-12-07T03:21:38;3.59;89.06
72106;SHT30;59975;47.646;18.318;2022-12-07T03:24:08;3.62;88.92
72106;SHT30;59975;47.646;18.318;2022-12-07T03:26:38;3.60;88.61
72106;SHT30;59975;47.646;18.318;2022-12-07T03:29:08;3.60;89.02
72106;SHT30;59975;47.646;18.318;2022-12-07T03:31:40;3.60;89.39
72106;SHT30;59975;47.646;18.318;2022-12-07T03:34:12;3.56;89.32
72106;SHT30;59975;47.646;18.318;2022-12-07T03:36:45;3.53;89.62
72106;SHT30;59975;47.646;18.318;2022-12-07T03:39:35;3.53;89.76
72106;SHT30;59975;47.646;18.318;2022-12-07T03:42:04;3.52;89.96
72106;SHT30;59975;47.646;18.318;2022-12-07T03:44:31;3.53;89.91
72106;SHT30;59975;47.646;18.318;2022-12-07T03:47:24;3.50;89.85
72106;SHT30;59975;47.646;18.318;2022-12-07T03:52:42;3.59;90.16
72106;SHT30;59975;47.646;18.318;2022-12-07T03:55:32;3.56;90.17
72106;SHT30;59975;47.646;18.318;2022-12-07T03:58:06;3.58;90.33
72106;SHT30;59975;47.646;18.318;2022-12-07T04:00:32;3.59;90.39
72106;SHT30;59975;47.646;18.318;2022-12-07T04:02:58;3.59;90.51
72106;SHT30;59975;47.646;18.318;2022-12-07T04:05:24;3.59;90.50
72106;SHT30;59975;47.646;18.318;2022-12-07T04:07:50;3.56;90.64
72106;SHT30;59975;47.646;18.318;2022-12-07T04:10:15;3.58;90.75
72106;SHT30;59975;47.646;18.318;2022-12-07T04:12:41;3.59;90.74
72106;SHT30;59975;47.646;18.318;2022-12-07T04:15:07;3.59;90.75
72106;SHT30;59975;47.646;18.318;2022-12-07T04:17:32;3.59;90.81
72106;SHT30;59975;47.646;18.318;2022-12-07T04:19:58;3.60;90.80
72106;SHT30;59975;47.646;18.318;2022-12-07T04:22:23;3.59;90.82
72106;SHT30;59975;47.646;18.318;2022-12-07T04:24:49;3.58;90.85
72106;SHT30;59975;47.646;18.318;2022-12-07T04:27:14;3.58;90.88
72106;SHT30;59975;47.646;18.318;2022-12-07T04:29:40;3.60;90.95
72106;SHT30;59975;47.646;18.318;2022-12-07T04:32:05;3.59;90.93
72106;SHT30;59975;47.646;18.318;2022-12-07T04:34:31;3.60;91.02
72106;SHT30;59975;47.646;18.318;2022-12-07T04:36:56;3.59;91.13
72106;SHT30;59975;47.646;18.318;2022-12-07T04:41:47;3.60;91.24
72106;SHT30;59975;47.646;18.318;2022-12-07T04:44:13;3.59;91.26
72106;SHT30;59975;47.646;18.318;2022-12-07T04:46:40;3.60;91.19
72106;SHT30;59975;47.646;18.318;2022-12-07T04:49:05;3.62;91.12
72106;SHT30;59975;47.646;18.318;2022-12-07T04:51:31;3.58;91.15
72106;SHT30;59975;47.646;18.318;2022-12-07T04:53:56;3.60;91.08
72106;SHT30;59975;47.646;18.318;2022-12-07T04:56:23;3.58;91.01
72106;SHT30;59975;47.646;18.318;2022-12-07T04:58:49;3.56;91.07
72106;SHT30;59975;47.646;18.318;2022-12-07T05:01:16;3.58;91.08
72106;SHT30;59975;47.646;18.318;2022-12-07T05:03:42;3.56;91.04
72106;SHT30;59975;47.646;18.318;2022-12-07T05:06:09;3.53;91.15
72106;SHT30;59975;47.646;18.318;2022-12-07T05:08:35;3.52;91.22
72106;SHT30;59975;47.646;18.318;2022-12-07T05:11:01;3.50;91.27
72106;SHT30;59975;47.646;18.318;2022-12-07T05:13:26;3.50;91.38
72106;SHT30;59975;47.646;18.318;2022-12-07T05:15:52;3.46;91.46
72106;SHT30;59975;47.646;18.318;2022-12-07T05:18:17;3.49;91.52
72106;SHT30;59975;47.646;18.318;2022-12-07T05:20:44;3.46;91.58
72106;SHT30;59975;47.646;18.318;2022-12-07T05:23:09;3.43;91.63
72106;SHT30;59975;47.646;18.318;2022-12-07T05:25:35;3.48;91.63
72106;SHT30;59975;47.646;18.318;2022-12-07T05:28:01;3.43;91.64
72106;SHT30;59975;47.646;18.318;2022-12-07T05:30:27;3.40;91.81
72106;SHT30;59975;47.646;18.318;2022-12-07T05:32:53;3.42;91.91
72106;SHT30;59975;47.646;18.318;2022-12-07T05:35:19;3.39;91.98
72106;SHT30;59975;47.646;18.318;2022-12-07T05:37:44;3.40;92.02
72106;SHT30;59975;47.646;18.318;2022-12-07T05:40:11;3.38;92.12
72106;SHT30;59975;47.646;18.318;2022-12-07T05:42:37;3.40;92.18
72106;SHT30;59975;47.646;18.318;2022-12-07T05:45:03;3.42;92.26
72106;SHT30;59975;47.646;18.318;2022-12-07T05:47:28;3.42;92.32
72106;SHT30;59975;47.646;18.318;2022-12-07T05:49:54;3.43;92.35
72106;SHT30;59975;47.646;18.318;2022-12-07T05:52:20;3.44;92.33
72106;SHT30;59975;47.646;18.318;2022-12-07T05:54:45;3.46;92.39
72106;SHT30;59975;47.646;18.318;2022-12-07T05:57:11;3.48;92.34
72106;SHT30;59975;47.646;18.318;2022-12-07T05:59:36;3.49;92.37
72106;SHT30;59975;47.646;18.318;2022-12-07T06:02:08;3.46;92.42
72106;SHT30;59975;47.646;18.318;2022-12-07T06:04:36;3.48;92.44
72106;SHT30;59975;47.646;18.318;2022-12-07T06:07:03;3.49;92.51
72106;SHT30;59975;47.646;18.318;2022-12-07T06:09:29;3.50;92.51
72106;SHT30;59975;47.646;18.318;2022-12-07T06:11:55;3.49;92.51
72106;SHT30;59975;47.646;18.318;2022-12-07T06:14:40;3.50;92.53
72106;SHT30;59975;47.646;18.318;2022-12-07T06:17:06;3.56;92.64
72106;SHT30;59975;47.646;18.318;2022-12-07T06:19:32;3.60;92.72
72106;SHT30;59975;47.646;18.318;2022-12-07T06:21:57;3.63;92.71
72106;SHT30;59975;47.646;18.318;2022-12-07T06:24:23;3.67;92.72
72106;SHT30;59975;47.646;18.318;2022-12-07T06:26:49;3.73;92.59
72106;SHT30;59975;47.646;18.318;2022-12-07T06:29:15;3.73;92.34
72106;SHT30;59975;47.646;18.318;2022-12-07T06:31:41;3.73;92.17
72106;SHT30;59975;47.646;18.318;2022-12-07T06:34:19;3.72;92.09
72106;SHT30;59975;47.646;18.318;2022-12-07T06:36:46;3.73;92.05
72106;SHT30;59975;47.646;18.318;2022-12-07T06:39:20;3.72;92.08
72106;SHT30;59975;47.646;18.318;2022-12-07T06:41:50;3.73;92.09
72106;SHT30;59975;47.646;18.318;2022-12-07T06:47:03;3.82;92.06
72106;SHT30;59975;47.646;18.318;2022-12-07T06:49:29;3.86;91.94
72106;SHT30;59975;47.646;18.318;2022-12-07T06:51:55;3.89;91.78
72106;SHT30;59975;47.646;18.318;2022-12-07T06:54:22;3.91;91.61
72106;SHT30;59975;47.646;18.318;2022-12-07T06:56:47;3.95;91.51
72106;SHT30;59975;47.646;18.318;2022-12-07T06:59:13;4.01;91.46
72106;SHT30;59975;47.646;18.318;2022-12-07T07:01:40;4.05;91.50
72106;SHT30;59975;47.646;18.318;2022-12-07T07:04:05;4.05;91.56
72106;SHT30;59975;47.646;18.318;2022-12-07T07:13:17;4.14;91.26
72106;SHT30;59975;47.646;18.318;2022-12-07T07:15:46;4.14;91.20
72106;SHT30;59975;47.646;18.318;2022-12-07T07:18:11;4.17;91.24
72106;SHT30;59975;47.646;18.318;2022-12-07T07:20:37;4.22;91.23
72106;SHT30;59975;47.646;18.318;2022-12-07T07:23:04;4.28;91.19
72106;SHT30;59975;47.646;18.318;2022-12-07T07:25:30;4.31;90.90
72106;SHT30;59975;47.646;18.318;2022-12-07T07:27:59;4.28;90.64
72106;SHT30;59975;47.646;18.318;2022-12-07T07:30:25;4.25;90.46
72106;SHT30;59975;47.646;18.318;2022-12-07T07:32:51;4.24;90.44
72106;SHT30;59975;47.646;18.318;2022-12-07T07:35:17;4.27;90.65
72106;SHT30;59975;47.646;18.318;2022-12-07T07:37:46;4.34;90.92
72106;SHT30;59975;47.646;18.318;2022-12-07T07:40:12;4.46;91.13
72106;SHT30;59975;47.646;18.318;2022-12-07T07:49:52;4.88;89.94
72106;SHT30;59975;47.646;18.318;2022-12-07T07:53:00;4.96;89.07
72106;SHT30;59975;47.646;18.318;2022-12-07T07:55:29;4.97;88.48
72106;SHT30;59975;47.646;18.318;2022-12-07T07:58:10;4.96;88.30
72106;SHT30;59975;47.646;18.318;2022-12-07T08:01:16;4.90;87.71
72106;SHT30;59975;47.646;18.318;2022-12-07T08:10:44;4.46;88.79
72106;SHT30;59975;47.646;18.318;2022-12-07T08:17:54;4.25;89.56
72106;SHT30;59975;47.646;18.318;2022-12-07T08:20:31;4.20;89.76
72106;SHT30;59975;47.646;18.318;2022-12-07T08:23:04;4.25;89.90
72106;SHT30;59975;47.646;18.318;2022-12-07T09:22:16;6.35;83.03
72106;SHT30;59975;47.646;18.318;2022-12-07T09:25:06;6.32;82.44
72106;SHT30;59975;47.646;18.318;2022-12-07T09:28:15;6.29;83.33
72106;SHT30;59975;47.646;18.318;2022-12-07T09:34:21;6.40;82.56
72106;SHT30;59975;47.646;18.318;2022-12-07T09:40:23;6.50;81.40
72106;SHT30;59975;47.646;18.318;2022-12-07T09:43:30;6.59;80.65
72106;SHT30;59975;47.646;18.318;2022-12-07T09:46:17;6.83;79.77
72106;SHT30;59975;47.646;18.318;2022-12-07T09:48:57;6.84;78.98
72106;SHT30;59975;47.646;18.318;2022-12-07T09:51:35;6.79;77.73
72106;SHT30;59975;47.646;18.318;2022-12-07T09:54:30;6.75;77.69
72106;SHT30;59975;47.646;18.318;2022-12-07T09:57:29;6.91;78.60
72106;SHT30;59975;47.646;18.318;2022-12-07T10:00:17;7.10;78.03
72106;SHT30;59975;47.646;18.318;2022-12-07T12:36:48;6.72;74.76
72106;SHT30;59975;47.646;18.318;2022-12-07T12:39:16;6.70;73.96
72106;SHT30;59975;47.646;18.318;2022-12-07T12:41:52;6.70;73.77
72106;SHT30;59975;47.646;18.318;2022-12-07T12:51:43;6.67;73.22
72106;SHT30;59975;47.646;18.318;2022-12-07T12:59:56;6.33;75.30
72106;SHT30;59975;47.646;18.318;2022-12-07T13:02:37;6.30;75.30
72106;SHT30;59975;47.646;18.318;2022-12-07T13:15:46;6.14;74.75
72106;SHT30;59975;47.646;18.318;2022-12-07T13:20:59;6.04;75.69
72106;SHT30;59975;47.646;18.318;2022-12-07T13:23:29;6.04;75.73
72106;SHT30;59975;47.646;18.318;2022-12-07T13:26:06;6.12;75.25
72106;SHT30;59975;47.646;18.318;2022-12-07T13:28:40;6.06;74.51
72106;SHT30;59975;47.646;18.318;2022-12-07T13:33:53;6.09;73.68
72106;SHT30;59975;47.646;18.318;2022-12-07T13:36:39;6.06;74.16
72106;SHT30;59975;47.646;18.318;2022-12-07T13:39:32;6.05;74.31
72106;SHT30;59975;47.646;18.318;2022-12-07T13:42:08;6.04;74.46
72106;SHT30;59975;47.646;18.318;2022-12-07T13:44:40;6.01;74.78
72106;SHT30;59975;47.646;18.318;2022-12-07T13:47:15;6.04;74.47
72106;SHT30;59975;47.646;18.318;2022-12-07T13:49:51;5.98;74.52
72106;SHT30;59975;47.646;18.318;2022-12-07T13:52:21;5.92;74.38
72106;SHT30;59975;47.646;18.318;2022-12-07T13:57:33;5.72;74.28
72106;SHT30;59975;47.646;18.318;2022-12-07T14:00:01;5.58;74.90
72106;SHT30;59975;47.646;18.318;2022-12-07T14:02:31;5.53;74.87
72106;SHT30;59975;47.646;18.318;2022-12-07T14:05:29;5.46;74.97
72106;SHT30;59975;47.646;18.318;2022-12-07T14:08:04;5.36;74.98
72106;SHT30;59975;47.646;18.318;2022-12-07T14:10:35;5.26;75.54
72106;SHT30;59975;47.646;18.318;2022-12-07T14:13:21;5.13;76.35
72106;SHT30;59975;47.646;18.318;2022-12-07T14:15:52;5.05;76.30
72106;SHT30;59975;47.646;18.318;2022-12-07T14:23:35;4.95;75.75
72106;SHT30;59975;47.646;18.318;2022-12-07T14:28:36;4.79;76.42
72106;SHT30;59975;47.646;18.318;2022-12-07T14:31:03;4.69;76.37
72106;SHT30;59975;47.646;18.318;2022-12-07T14:33:29;4.62;76.22
72106;SHT30;59975;47.646;18.318;2022-12-07T14:35:54;4.49;76.89
72106;SHT30;59975;47.646;18.318;2022-12-07T14:38:25;4.40;77.03
72106;SHT30;59975;47.646;18.318;2022-12-07T14:40:52;4.31;77.52
72106;SHT30;59975;47.646;18.318;2022-12-07T14:43:19;4.24;77.70
72106;SHT30;59975;47.646;18.318;2022-12-07T14:45:45;4.20;77.69
72106;SHT30;59975;47.646;18.318;2022-12-07T14:48:12;4.28;76.83
72106;SHT30;59975;47.646;18.318;2022-12-07T14:50:44;4.21;76.67
72106;SHT30;59975;47.646;18.318;2022-12-07T14:53:16;4.04;77.05
72106;SHT30;59975;47.646;18.318;2022-12-07T14:55:42;4.01;77.14
72106;SHT30;59975;47.646;18.318;2022-12-07T14:58:14;4.04;76.91
72106;SHT30;59975;47.646;18.318;2022-12-07T15:00:40;3.95;77.20
72106;SHT30;59975;47.646;18.318;2022-12-07T15:03:05;3.84;77.76
72106;SHT30;59975;47.646;18.318;2022-12-07T15:05:31;3.76;77.99
72106;SHT30;59975;47.646;18.318;2022-12-07T15:07:56;3.66;78.67
72106;SHT30;59975;47.646;18.318;2022-12-07T15:10:27;3.52;79.36
72106;SHT30;59975;47.646;18.318;2022-12-07T15:12:56;3.46;79.60
72106;SHT30;59975;47.646;18.318;2022-12-07T15:15:41;3.55;78.79
72106;SHT30;59975;47.646;18.318;2022-12-07T15:18:07;3.56;78.16
72106;SHT30;59975;47.646;18.318;2022-12-07T15:20:32;3.50;77.90
72106;SHT30;59975;47.646;18.318;2022-12-07T15:22:58;3.56;77.86
72106;SHT30;59975;47.646;18.318;2022-12-07T15:25:23;3.48;78.02
72106;SHT30;59975;47.646;18.318;2022-12-07T15:27:49;3.39;77.84
72106;SHT30;59975;47.646;18.318;2022-12-07T15:30:15;3.33;77.97
72106;SHT30;59975;47.646;18.318;2022-12-07T15:32:40;3.33;78.16
72106;SHT30;59975;47.646;18.318;2022-12-07T15:35:06;3.35;77.76
72106;SHT30;59975;47.646;18.318;2022-12-07T15:37:32;3.26;77.98
72106;SHT30;59975;47.646;18.318;2022-12-07T15:39:58;3.16;78.32
72106;SHT30;59975;47.646;18.318;2022-12-07T15:42:23;3.12;78.53
72106;SHT30;59975;47.646;18.318;2022-12-07T15:44:49;3.04;78.72
72106;SHT30;59975;47.646;18.318;2022-12-07T15:47:37;2.94;79.16
72106;SHT30;59975;47.646;18.318;2022-12-07T15:50:04;2.75;79.61
72106;SHT30;59975;47.646;18.318;2022-12-07T15:52:31;2.67;80.29
72106;SHT30;59975;47.646;18.318;2022-12-07T15:54:56;2.65;80.30
72106;SHT30;59975;47.646;18.318;2022-12-07T15:57:22;2.65;80.13
72106;SHT30;59975;47.646;18.318;2022-12-07T15:59:47;2.50;80.87
72106;SHT30;59975;47.646;18.318;2022-12-07T16:02:13;2.36;81.50
72106;SHT30;59975;47.646;18.318;2022-12-07T16:04:38;2.40;81.13
72106;SHT30;59975;47.646;18.318;2022-12-07T16:07:04;2.50;80.82
72106;SHT30;59975;47.646;18.318;2022-12-07T16:09:30;2.58;80.74
72106;SHT30;59975;47.646;18.318;2022-12-07T16:11:56;2.62;80.59
72106;SHT30;59975;47.646;18.318;2022-12-07T16:14:21;2.56;80.43
72106;SHT30;59975;47.646;18.318;2022-12-07T16:16:47;2.48;80.47
72106;SHT30;59975;47.646;18.318;2022-12-07T16:19:13;2.43;80.48
72106;SHT30;59975;47.646;18.318;2022-12-07T16:21:39;2.29;80.71
72106;SHT30;59975;47.646;18.318;2022-12-07T16:24:05;2.23;80.84
72106;SHT30;59975;47.646;18.318;2022-12-07T16:26:31;2.07;81.41
72106;SHT30;59975;47.646;18.318;2022-12-07T16:28:57;1.96;81.60
72106;SHT30;59975;47.646;18.318;2022-12-07T16:31:24;1.83;81.77
72106;SHT30;59975;47.646;18.318;2022-12-07T16:33:53;1.92;81.77
72106;SHT30;59975;47.646;18.318;2022-12-07T16:36:18;2.05;81.37
72106;SHT30;59975;47.646;18.318;2022-12-07T16:38:46;2.10;80.83
72106;SHT30;59975;47.646;18.318;2022-12-07T16:41:12;2.06;80.78
72106;SHT30;59975;47.646;18.318;2022-12-07T16:43:37;1.89;81.22
72106;SHT30;59975;47.646;18.318;2022-12-07T16:46:03;1.76;82.47
72106;SHT30;59975;47.646;18.318;2022-12-07T16:48:29;1.65;83.30
72106;SHT30;59975;47.646;18.318;2022-12-07T16:50:55;1.55;83.75
72106;SHT30;59975;47.646;18.318;2022-12-07T16:53:22;1.47;84.25
72106;SHT30;59975;47.646;18.318;2022-12-07T16:55:50;1.38;84.75
72106;SHT30;59975;47.646;18.318;2022-12-07T16:58:17;1.31;84.85
72106;SHT30;59975;47.646;18.318;2022-12-07T17:00:43;1.23;85.27
72106;SHT30;59975;47.646;18.318;2022-12-07T17:03:09;1.20;85.82
72106;SHT30;59975;47.646;18.318;2022-12-07T17:05:40;1.18;86.48
72106;SHT30;59975;47.646;18.318;2022-12-07T17:08:06;1.20;85.91
72106;SHT30;59975;47.646;18.318;2022-12-07T17:10:33;1.18;85.86
72106;SHT30;59975;47.646;18.318;2022-12-07T17:13:01;1.16;85.67
72106;SHT30;59975;47.646;18.318;2022-12-07T17:15:26;1.30;85.42
72106;SHT30;59975;47.646;18.318;2022-12-07T17:17:55;1.34;85.12
72106;SHT30;59975;47.646;18.318;2022-12-07T17:20:22;1.30;85.62
72106;SHT30;59975;47.646;18.318;2022-12-07T17:22:49;1.26;86.62
72106;SHT30;59975;47.646;18.318;2022-12-07T17:25:15;1.13;87.03
72106;SHT30;59975;47.646;18.318;2022-12-07T17:27:42;1.05;87.65
72106;SHT30;59975;47.646;18.318;2022-12-07T17:30:08;1.03;87.96
72106;SHT30;59975;47.646;18.318;2022-12-07T17:32:34;1.08;88.27
72106;SHT30;59975;47.646;18.318;2022-12-07T17:34:59;1.04;88.27
72106;SHT30;59975;47.646;18.318;2022-12-07T17:37:26;1.00;88.41
72106;SHT30;59975;47.646;18.318;2022-12-07T17:39:52;1.03;88.66
72106;SHT30;59975;47.646;18.318;2022-12-07T17:42:26;0.98;88.80
72106;SHT30;59975;47.646;18.318;2022-12-07T17:45:01;0.98;88.99
72106;SHT30;59975;47.646;18.318;2022-12-07T17:47:27;1.00;89.11
72106;SHT30;59975;47.646;18.318;2022-12-07T17:49:53;1.03;89.06
72106;SHT30;59975;47.646;18.318;2022-12-07T17:52:18;1.04;89.00
72106;SHT30;59975;47.646;18.318;2022-12-07T17:55:04;1.11;88.74
72106;SHT30;59975;47.646;18.318;2022-12-07T17:57:30;1.13;88.40
72106;SHT30;59975;47.646;18.318;2022-12-07T17:59:55;1.07;88.16
72106;SHT30;59975;47.646;18.318;2022-12-07T18:02:21;1.07;87.87
72106;SHT30;59975;47.646;18.318;2022-12-07T18:04:47;1.01;87.52
72106;SHT30;59975;47.646;18.318;2022-12-07T18:07:12;0.97;87.76
72106;SHT30;59975;47.646;18.318;2022-12-07T18:09:38;0.88;87.73
72106;SHT30;59975;47.646;18.318;2022-12-07T18:12:04;0.81;87.72
72106;SHT30;59975;47.646;18.318;2022-12-07T18:14:29;0.70;87.91
72106;SHT30;59975;47.646;18.318;2022-12-07T18:16:55;0.66;88.11
72106;SHT30;59975;47.646;18.318;2022-12-07T18:19:20;0.60;88.36
72106;SHT30;59975;47.646;18.318;2022-12-07T18:21:46;0.55;88.68
72106;SHT30;59975;47.646;18.318;2022-12-07T18:24:14;0.49;88.76
72106;SHT30;59975;47.646;18.318;2022-12-07T18:26:40;0.50;89.14
72106;SHT30;59975;47.646;18.318;2022-12-07T18:29:07;0.49;89.12
72106;SHT30;59975;47.646;18.318;2022-12-07T18:31:34;0.45;89.25
72106;SHT30;59975;47.646;18.318;2022-12-07T18:34:02;0.39;89.36
72106;SHT30;59975;47.646;18.318;2022-12-07T18:36:29;0.41;89.62
72106;SHT30;59975;47.646;18.318;2022-12-07T18:38:55;0.43;89.81
72106;SHT30;59975;47.646;18.318;2022-12-07T18:41:20;0.41;89.78
72106;SHT30;59975;47.646;18.318;2022-12-07T18:43:46;0.39;89.66
72106;SHT30;59975;47.646;18.318;2022-12-07T18:46:13;0.33;89.66
72106;SHT30;59975;47.646;18.318;2022-12-07T18:48:39;0.29;89.74
72106;SHT30;59975;47.646;18.318;2022-12-07T18:51:06;0.28;90.04
72106;SHT30;59975;47.646;18.318;2022-12-07T18:53:33;0.29;90.26
72106;SHT30;59975;47.646;18.318;2022-12-07T18:56:16;0.35;90.51
72106;SHT30;59975;47.646;18.318;2022-12-07T18:58:43;0.36;90.47
72106;SHT30;59975;47.646;18.318;2022-12-07T19:01:29;0.35;90.57
72106;SHT30;59975;47.646;18.318;2022-12-07T19:03:56;0.39;90.72
72106;SHT30;59975;47.646;18.318;2022-12-07T19:06:21;0.41;90.73
72106;SHT30;59975;47.646;18.318;2022-12-07T19:08:47;0.42;90.74
72106;SHT30;59975;47.646;18.318;2022-12-07T19:11:18;0.42;90.76
72106;SHT30;59975;47.646;18.318;2022-12-07T19:14:02;0.45;90.66
72106;SHT30;59975;47.646;18.318;2022-12-07T19:16:27;0.38;90.48
72106;SHT30;59975;47.646;18.318;2022-12-07T19:18:53;0.36;90.28
72106;SHT30;59975;47.646;18.318;2022-12-07T19:21:18;0.29;90.24
72106;SHT30;59975;47.646;18.318;2022-12-07T19:23:44;0.22;90.12
72106;SHT30;59975;47.646;18.318;2022-12-07T19:26:09;0.21;90.28
72106;SHT30;59975;47.646;18.318;2022-12-07T19:28:35;0.18;90.37
72106;SHT30;59975;47.646;18.318;2022-12-07T19:31:05;0.12;90.28
72106;SHT30;59975;47.646;18.318;2022-12-07T19:33:30;0.11;90.34
72106;SHT30;59975;47.646;18.318;2022-12-07T19:35:56;0.04;90.47
72106;SHT30;59975;47.646;18.318;2022-12-07T19:38:21;0.06;90.78
72106;SHT30;59975;47.646;18.318;2022-12-07T19:40:46;0.05;90.92
72106;SHT30;59975;47.646;18.318;2022-12-07T19:43:12;-0.02;90.90
72106;SHT30;59975;47.646;18.318;2022-12-07T19:45:37;-0.05;90.98
72106;SHT30;59975;47.646;18.318;2022-12-07T19:48:03;-0.10;91.16
72106;SHT30;59975;47.646;18.318;2022-12-07T19:50:28;-0.18;91.07
72106;SHT30;59975;47.646;18.318;2022-12-07T19:52:54;-0.19;91.21
72106;SHT30;59975;47.646;18.318;2022-12-07T19:55:20;-0.23;91.16
72106;SHT30;59975;47.646;18.318;2022-12-07T19:57:46;-0.28;91.34
72106;SHT30;59975;47.646;18.318;2022-12-07T20:00:11;-0.25;91.52
72106;SHT30;59975;47.646;18.318;2022-12-07T20:02:37;-0.20;91.60
72106;SHT30;59975;47.646;18.318;2022-12-07T20:05:03;-0.25;91.45
72106;SHT30;59975;47.646;18.318;2022-12-07T20:07:28;-0.25;91.54
72106;SHT30;59975;47.646;18.318;2022-12-07T20:09:55;-0.23;91.70
72106;SHT30;59975;47.646;18.318;2022-12-07T20:12:21;-0.15;91.85
72106;SHT30;59975;47.646;18.318;2022-12-07T20:15:05;-0.05;91.96
72106;SHT30;59975;47.646;18.318;2022-12-07T20:17:31;0.04;91.80
72106;SHT30;59975;47.646;18.318;2022-12-07T20:19:57;0.05;91.74
72106;SHT30;59975;47.646;18.318;2022-12-07T20:22:22;0.12;91.61
72106;SHT30;59975;47.646;18.318;2022-12-07T20:24:48;0.15;91.57
72106;SHT30;59975;47.646;18.318;2022-12-07T20:27:13;0.12;91.41
72106;SHT30;59975;47.646;18.318;2022-12-07T20:29:40;0.15;91.53
72106;SHT30;59975;47.646;18.318;2022-12-07T20:32:05;0.12;91.27
72106;SHT30;59975;47.646;18.318;2022-12-07T20:34:31;0.11;91.43
72106;SHT30;59975;47.646;18.318;2022-12-07T20:36:56;0.16;91.50
72106;SHT30;59975;47.646;18.318;2022-12-07T20:39:22;0.21;91.58
72106;SHT30;59975;47.646;18.318;2022-12-07T20:41:47;0.22;91.56
72106;SHT30;59975;47.646;18.318;2022-12-07T20:44:32;0.23;91.66
72106;SHT30;59975;47.646;18.318;2022-12-07T20:46:59;0.21;91.52
72106;SHT30;59975;47.646;18.318;2022-12-07T20:49:24;0.15;91.53
72106;SHT30;59975;47.646;18.318;2022-12-07T20:51:50;0.22;91.59
72106;SHT30;59975;47.646;18.318;2022-12-07T20:54:15;0.14;91.72